sensor_id;sensor_type;location;lat;lon;timestamp;temperature;humidity
63039;DHT22;49125;48.812;9.206;2022-07-12T00:02:04;16.70;93.20
63039;DHT22;49125;48.812;9.206;2022-07-12T00:04:30;16.70;93.40
63039;DHT22;49125;48.812;9.206;2022-07-12T00:06:55;16.60;93.50
63039;DHT22;49125;48.812;9.206;2022-07-12T00:09:21;16.50;93.70
63039;DHT22;49125;48.812;9.206;2022-07-12T00:11:46;16.50;93.60
63039;DHT22;49125;48.812;9.206;2022-07-12T00:14:13;16.50;93.60
63039;DHT22;49125;48.812;9.206;2022-07-12T00:16:39;16.50;93.60
63039;DHT22;49125;48.812;9.206;2022-07-12T00:19:05;16.50;93.60
63039;DHT22;49125;48.812;9.206;2022-07-12T00:21:30;16.40;93.60
63039;DHT22;49125;48.812;9.206;2022-07-12T00:23:56;16.40;93.70
63039;DHT22;49125;48.812;9.206;2022-07-12T00:26:21;16.40;93.90
63039;DHT22;49125;48.812;9.206;2022-07-12T00:28:48;16.40;93.90
63039;DHT22;49125;48.812;9.206;2022-07-12T00:31:14;16.30;93.80
63039;DHT22;49125;48.812;9.206;2022-07-12T00:33:39;16.30;94.10
63039;DHT22;49125;48.812;9.206;2022-07-12T00:36:05;16.30;94.00
63039;DHT22;49125;48.812;9.206;2022-07-12T00:38:31;16.20;94.20
63039;DHT22;49125;48.812;9.206;2022-07-12T00:40:57;16.10;94.40
63039;DHT22;49125;48.812;9.206;2022-07-12T00:43:22;16.10;94.30
63039;DHT22;49125;48.812;9.206;2022-07-12T00:45:48;16.20;94.40
63039;DHT22;49125;48.812;9.206;2022-07-12T00:48:14;16.20;94.50
63039;DHT22;49125;48.812;9.206;2022-07-12T00:50:44;16.20;94.50
63039;DHT22;49125;48.812;9.206;2022-07-12T00:53:10;16.20;94.50
63039;DHT22;49125;48.812;9.206;2022-07-12T00:55:36;16.20;94.50
63039;DHT22;49125;48.812;9.206;2022-07-12T00:58:01;16.30;94.70
63039;DHT22;49125;48.812;9.206;2022-07-12T01:00:28;16.30;94.60
63039;DHT22;49125;48.812;9.206;2022-07-12T01:02:58;16.40;94.60
63039;DHT22;49125;48.812;9.206;2022-07-12T01:05:27;16.50;94.60
63039;DHT22;49125;48.812;9.206;2022-07-12T01:07:53;16.50;94.40
63039;DHT22;49125;48.812;9.206;2022-07-12T01:10:20;16.60;94.50
63039;DHT22;49125;48.812;9.206;2022-07-12T01:12:46;16.60;94.40
63039;DHT22;49125;48.812;9.206;2022-07-12T01:15:12;16.60;94.40
63039;DHT22;49125;48.812;9.206;2022-07-12T01:17:39;16.60;94.30
63039;DHT22;49125;48.812;9.206;2022-07-12T01:20:05;16.60;94.50
63039;DHT22;49125;48.812;9.206;2022-07-12T01:22:35;16.60;94.40
63039;DHT22;49125;48.812;9.206;2022-07-12T01:25:02;16.50;94.50
63039;DHT22;49125;48.812;9.206;2022-07-12T01:27:29;16.60;94.50
63039;DHT22;49125;48.812;9.206;2022-07-12T01:29:55;16.60;94.40
63039;DHT22;49125;48.812;9.206;2022-07-12T01:32:21;16.70;94.50
63039;DHT22;49125;48.812;9.206;2022-07-12T01:35:10;16.70;94.50
63039;DHT22;49125;48.812;9.206;2022-07-12T01:37:37;16.60;94.70
63039;DHT22;49125;48.812;9.206;2022-07-12T01:40:13;16.60;94.50
63039;DHT22;49125;48.812;9.206;2022-07-12T01:42:43;16.60;94.40
63039;DHT22;49125;48.812;9.206;2022-07-12T01:45:12;16.60;94.50
63039;DHT22;49125;48.812;9.206;2022-07-12T01:47:38;16.50;94.50
63039;DHT22;49125;48.812;9.206;2022-07-12T01:50:08;16.40;94.50
63039;DHT22;49125;48.812;9.206;2022-07-12T01:52:38;16.30;94.70
63039;DHT22;49125;48.812;9.206;2022-07-12T01:55:04;16.20;94.60
63039;DHT22;49125;48.812;9.206;2022-07-12T01:57:31;16.20;94.70
63039;DHT22;49125;48.812;9.206;2022-07-12T01:59:58;16.10;94.80
63039;DHT22;49125;48.812;9.206;2022-07-12T02:02:25;16.00;95.00
63039;DHT22;49125;48.812;9.206;2022-07-12T02:04:53;15.90;95.10
63039;DHT22;49125;48.812;9.206;2022-07-12T02:07:19;15.90;95.10
63039;DHT22;49125;48.812;9.206;2022-07-12T02:09:45;15.80;95.30
63039;DHT22;49125;48.812;9.206;2022-07-12T02:12:10;15.70;95.50
63039;DHT22;49125;48.812;9.206;2022-07-12T02:14:36;15.60;95.70
63039;DHT22;49125;48.812;9.206;2022-07-12T02:17:01;15.60;95.70
63039;DHT22;49125;48.812;9.206;2022-07-12T02:19:27;15.60;95.80
63039;DHT22;49125;48.812;9.206;2022-07-12T02:21:52;15.50;95.90
63039;DHT22;49125;48.812;9.206;2022-07-12T02:24:18;15.50;96.00
63039;DHT22;49125;48.812;9.206;2022-07-12T02:26:43;15.40;96.20
63039;DHT22;49125;48.812;9.206;2022-07-12T02:29:09;15.30;96.20
63039;DHT22;49125;48.812;9.206;2022-07-12T02:31:35;15.40;96.20
63039;DHT22;49125;48.812;9.206;2022-07-12T02:34:00;15.30;96.20
63039;DHT22;49125;48.812;9.206;2022-07-12T02:36:26;15.30;96.20
63039;DHT22;49125;48.812;9.206;2022-07-12T02:38:52;15.10;96.40
63039;DHT22;49125;48.812;9.206;2022-07-12T02:41:17;15.10;96.50
63039;DHT22;49125;48.812;9.206;2022-07-12T02:43:43;15.10;96.60
63039;DHT22;49125;48.812;9.206;2022-07-12T02:46:12;15.00;96.70
63039;DHT22;49125;48.812;9.206;2022-07-12T02:48:39;14.90;96.70
63039;DHT22;49125;48.812;9.206;2022-07-12T02:51:06;14.90;96.80
63039;DHT22;49125;48.812;9.206;2022-07-12T02:53:33;14.90;96.80
63039;DHT22;49125;48.812;9.206;2022-07-12T02:55:59;14.90;97.00
63039;DHT22;49125;48.812;9.206;2022-07-12T02:58:25;14.90;97.00
63039;DHT22;49125;48.812;9.206;2022-07-12T03:00:51;14.90;97.00
63039;DHT22;49125;48.812;9.206;2022-07-12T03:03:16;14.80;97.00
63039;DHT22;49125;48.812;9.206;2022-07-12T03:05:42;14.80;97.20
63039;DHT22;49125;48.812;9.206;2022-07-12T03:08:09;14.70;97.20
63039;DHT22;49125;48.812;9.206;2022-07-12T03:10:35;14.70;97.30
63039;DHT22;49125;48.812;9.206;2022-07-12T03:13:02;14.70;97.50
63039;DHT22;49125;48.812;9.206;2022-07-12T03:15:28;14.70;97.40
63039;DHT22;49125;48.812;9.206;2022-07-12T03:17:58;14.70;97.50
63039;DHT22;49125;48.812;9.206;2022-07-12T03:20:24;14.70;97.60
63039;DHT22;49125;48.812;9.206;2022-07-12T03:22:50;14.70;97.70
63039;DHT22;49125;48.812;9.206;2022-07-12T03:25:17;14.60;97.80
63039;DHT22;49125;48.812;9.206;2022-07-12T03:27:43;14.60;97.90
63039;DHT22;49125;48.812;9.206;2022-07-12T03:30:09;14.60;98.20
63039;DHT22;49125;48.812;9.206;2022-07-12T03:32:35;14.70;98.10
63039;DHT22;49125;48.812;9.206;2022-07-12T03:35:01;14.60;97.90
63039;DHT22;49125;48.812;9.206;2022-07-12T03:40:05;14.60;98.30
63039;DHT22;49125;48.812;9.206;2022-07-12T03:42:31;14.60;98.10
63039;DHT22;49125;48.812;9.206;2022-07-12T03:44:56;14.70;98.20
63039;DHT22;49125;48.812;9.206;2022-07-12T03:47:21;14.70;97.80
63039;DHT22;49125;48.812;9.206;2022-07-12T03:49:47;14.80;97.90
63039;DHT22;49125;48.812;9.206;2022-07-12T03:52:12;14.80;98.00
63039;DHT22;49125;48.812;9.206;2022-07-12T03:54:38;14.80;97.90
63039;DHT22;49125;48.812;9.206;2022-07-12T03:57:04;14.80;97.80
63039;DHT22;49125;48.812;9.206;2022-07-12T03:59:39;14.80;97.90
63039;DHT22;49125;48.812;9.206;2022-07-12T04:02:04;14.80;98.00
63039;DHT22;49125;48.812;9.206;2022-07-12T04:04:30;14.80;98.00
63039;DHT22;49125;48.812;9.206;2022-07-12T04:06:55;14.80;98.10
63039;DHT22;49125;48.812;9.206;2022-07-12T04:09:21;14.90;98.30
63039;DHT22;49125;48.812;9.206;2022-07-12T04:11:47;14.90;98.30
63039;DHT22;49125;48.812;9.206;2022-07-12T04:14:12;15.00;98.40
63039;DHT22;49125;48.812;9.206;2022-07-12T04:16:38;15.10;98.30
63039;DHT22;49125;48.812;9.206;2022-07-12T04:19:06;15.20;98.20
63039;DHT22;49125;48.812;9.206;2022-07-12T04:21:37;15.30;98.20
63039;DHT22;49125;48.812;9.206;2022-07-12T04:24:04;15.30;98.10
63039;DHT22;49125;48.812;9.206;2022-07-12T04:26:33;15.40;98.10
63039;DHT22;49125;48.812;9.206;2022-07-12T04:28:59;15.40;98.00
63039;DHT22;49125;48.812;9.206;2022-07-12T04:31:25;15.40;97.90
63039;DHT22;49125;48.812;9.206;2022-07-12T04:33:51;15.40;97.80
63039;DHT22;49125;48.812;9.206;2022-07-12T04:36:17;15.40;97.90
63039;DHT22;49125;48.812;9.206;2022-07-12T04:38:42;15.40;97.90
63039;DHT22;49125;48.812;9.206;2022-07-12T04:41:08;15.50;97.90
63039;DHT22;49125;48.812;9.206;2022-07-12T04:43:34;15.40;97.90
63039;DHT22;49125;48.812;9.206;2022-07-12T04:46:06;15.40;97.90
63039;DHT22;49125;48.812;9.206;2022-07-12T04:48:32;15.40;98.00
63039;DHT22;49125;48.812;9.206;2022-07-12T04:50:58;15.50;98.10
63039;DHT22;49125;48.812;9.206;2022-07-12T04:53:23;15.60;98.20
63039;DHT22;49125;48.812;9.206;2022-07-12T04:55:49;15.70;98.10
63039;DHT22;49125;48.812;9.206;2022-07-12T04:58:14;15.80;98.40
63039;DHT22;49125;48.812;9.206;2022-07-12T05:00:40;15.90;98.30
63039;DHT22;49125;48.812;9.206;2022-07-12T05:03:05;16.10;97.90
63039;DHT22;49125;48.812;9.206;2022-07-12T05:05:31;16.20;97.70
63039;DHT22;49125;48.812;9.206;2022-07-12T05:07:56;16.30;97.80
63039;DHT22;49125;48.812;9.206;2022-07-12T05:10:22;16.40;97.70
63039;DHT22;49125;48.812;9.206;2022-07-12T05:12:47;16.40;97.50
63039;DHT22;49125;48.812;9.206;2022-07-12T05:15:13;16.50;97.60
63039;DHT22;49125;48.812;9.206;2022-07-12T05:17:39;16.60;97.20
63039;DHT22;49125;48.812;9.206;2022-07-12T05:20:05;16.70;97.00
63039;DHT22;49125;48.812;9.206;2022-07-12T05:22:31;16.80;96.80
63039;DHT22;49125;48.812;9.206;2022-07-12T05:24:56;17.00;96.70
63039;DHT22;49125;48.812;9.206;2022-07-12T05:27:22;17.00;96.20
63039;DHT22;49125;48.812;9.206;2022-07-12T05:29:47;17.10;96.30
63039;DHT22;49125;48.812;9.206;2022-07-12T05:32:13;17.20;96.50
63039;DHT22;49125;48.812;9.206;2022-07-12T05:34:38;17.40;96.50
63039;DHT22;49125;48.812;9.206;2022-07-12T05:37:04;17.40;96.00
63039;DHT22;49125;48.812;9.206;2022-07-12T05:39:30;17.50;95.90
63039;DHT22;49125;48.812;9.206;2022-07-12T05:41:55;17.50;95.60
63039;DHT22;49125;48.812;9.206;2022-07-12T05:44:21;17.70;95.80
63039;DHT22;49125;48.812;9.206;2022-07-12T05:46:51;17.90;95.70
63039;DHT22;49125;48.812;9.206;2022-07-12T05:49:16;18.10;95.20
63039;DHT22;49125;48.812;9.206;2022-07-12T05:51:42;18.30;95.30
63039;DHT22;49125;48.812;9.206;2022-07-12T05:54:26;18.50;94.90
63039;DHT22;49125;48.812;9.206;2022-07-12T05:56:51;18.80;94.90
63039;DHT22;49125;48.812;9.206;2022-07-12T05:59:18;19.00;94.70
63039;DHT22;49125;48.812;9.206;2022-07-12T06:01:43;19.20;94.00
63039;DHT22;49125;48.812;9.206;2022-07-12T06:04:09;19.40;92.90
63039;DHT22;49125;48.812;9.206;2022-07-12T06:06:35;19.50;92.50
63039;DHT22;49125;48.812;9.206;2022-07-12T06:09:01;19.60;92.20
63039;DHT22;49125;48.812;9.206;2022-07-12T06:11:27;19.70;92.10
63039;DHT22;49125;48.812;9.206;2022-07-12T06:13:55;19.90;92.40
63039;DHT22;49125;48.812;9.206;2022-07-12T06:16:21;20.10;91.90
63039;DHT22;49125;48.812;9.206;2022-07-12T06:18:47;20.30;91.00
63039;DHT22;49125;48.812;9.206;2022-07-12T06:21:12;20.00;89.40
63039;DHT22;49125;48.812;9.206;2022-07-12T06:23:38;19.80;90.10
63039;DHT22;49125;48.812;9.206;2022-07-12T06:26:03;20.00;91.70
63039;DHT22;49125;48.812;9.206;2022-07-12T06:28:29;20.30;91.40
63039;DHT22;49125;48.812;9.206;2022-07-12T06:30:54;20.50;90.30
63039;DHT22;49125;48.812;9.206;2022-07-12T06:33:20;20.70;90.80
63039;DHT22;49125;48.812;9.206;2022-07-12T06:35:46;20.70;88.90
63039;DHT22;49125;48.812;9.206;2022-07-12T06:38:11;20.80;90.00
63039;DHT22;49125;48.812;9.206;2022-07-12T06:40:37;21.00;89.70
63039;DHT22;49125;48.812;9.206;2022-07-12T06:43:03;21.40;88.70
63039;DHT22;49125;48.812;9.206;2022-07-12T06:45:33;21.70;87.40
63039;DHT22;49125;48.812;9.206;2022-07-12T06:47:58;21.90;86.90
63039;DHT22;49125;48.812;9.206;2022-07-12T06:50:24;22.10;85.50
63039;DHT22;49125;48.812;9.206;2022-07-12T06:52:49;22.30;84.20
63039;DHT22;49125;48.812;9.206;2022-07-12T06:55:15;22.50;83.10
63039;DHT22;49125;48.812;9.206;2022-07-12T06:57:41;22.70;83.90
63039;DHT22;49125;48.812;9.206;2022-07-12T07:00:07;22.90;82.00
63039;DHT22;49125;48.812;9.206;2022-07-12T07:02:33;23.00;79.20
63039;DHT22;49125;48.812;9.206;2022-07-12T07:04:58;23.10;77.30
63039;DHT22;49125;48.812;9.206;2022-07-12T07:07:24;23.00;76.00
63039;DHT22;49125;48.812;9.206;2022-07-12T07:09:50;23.00;76.70
63039;DHT22;49125;48.812;9.206;2022-07-12T07:12:15;23.00;78.00
63039;DHT22;49125;48.812;9.206;2022-07-12T07:14:41;23.20;78.50
63039;DHT22;49125;48.812;9.206;2022-07-12T07:17:06;23.30;76.70
63039;DHT22;49125;48.812;9.206;2022-07-12T07:19:32;23.20;75.80
63039;DHT22;49125;48.812;9.206;2022-07-12T07:21:58;23.20;76.80
63039;DHT22;49125;48.812;9.206;2022-07-12T07:24:24;23.40;75.90
63039;DHT22;49125;48.812;9.206;2022-07-12T07:26:50;23.40;74.70
63039;DHT22;49125;48.812;9.206;2022-07-12T07:29:15;23.40;76.60
63039;DHT22;49125;48.812;9.206;2022-07-12T07:31:59;23.60;74.90
63039;DHT22;49125;48.812;9.206;2022-07-12T07:34:25;23.90;76.20
63039;DHT22;49125;48.812;9.206;2022-07-12T07:36:51;24.10;74.90
63039;DHT22;49125;48.812;9.206;2022-07-12T07:39:17;24.10;73.20
63039;DHT22;49125;48.812;9.206;2022-07-12T07:41:43;23.80;70.40
63039;DHT22;49125;48.812;9.206;2022-07-12T07:44:08;23.90;72.40
63039;DHT22;49125;48.812;9.206;2022-07-12T07:46:34;24.00;70.70
63039;DHT22;49125;48.812;9.206;2022-07-12T07:49:00;24.20;72.50
63039;DHT22;49125;48.812;9.206;2022-07-12T07:51:25;24.60;71.30
63039;DHT22;49125;48.812;9.206;2022-07-12T07:53:51;24.80;70.90
63039;DHT22;49125;48.812;9.206;2022-07-12T07:56:17;24.90;69.40
63039;DHT22;49125;48.812;9.206;2022-07-12T07:58:42;25.00;70.10
63039;DHT22;49125;48.812;9.206;2022-07-12T08:01:08;25.10;69.20
63039;DHT22;49125;48.812;9.206;2022-07-12T08:03:33;25.00;68.20
63039;DHT22;49125;48.812;9.206;2022-07-12T08:05:59;25.10;69.20
63039;DHT22;49125;48.812;9.206;2022-07-12T08:08:26;25.40;68.10
63039;DHT22;49125;48.812;9.206;2022-07-12T08:10:53;25.50;65.20
63039;DHT22;49125;48.812;9.206;2022-07-12T08:13:18;25.40;66.10
63039;DHT22;49125;48.812;9.206;2022-07-12T08:15:44;25.20;66.50
63039;DHT22;49125;48.812;9.206;2022-07-12T08:18:10;25.40;66.10
63039;DHT22;49125;48.812;9.206;2022-07-12T08:20:35;25.20;64.70
63039;DHT22;49125;48.812;9.206;2022-07-12T08:23:01;25.50;67.10
63039;DHT22;49125;48.812;9.206;2022-07-12T08:25:26;25.80;66.80
63039;DHT22;49125;48.812;9.206;2022-07-12T08:27:52;25.40;61.60
63039;DHT22;49125;48.812;9.206;2022-07-12T08:30:18;25.30;62.70
63039;DHT22;49125;48.812;9.206;2022-07-12T08:32:44;25.60;62.50
63039;DHT22;49125;48.812;9.206;2022-07-12T08:35:13;25.90;61.40
63039;DHT22;49125;48.812;9.206;2022-07-12T08:37:42;26.00;65.10
63039;DHT22;49125;48.812;9.206;2022-07-12T08:40:08;26.00;62.20
63039;DHT22;49125;48.812;9.206;2022-07-12T08:42:35;26.40;63.60
63039;DHT22;49125;48.812;9.206;2022-07-12T08:45:00;26.30;60.60
63039;DHT22;49125;48.812;9.206;2022-07-12T08:47:26;26.60;61.30
63039;DHT22;49125;48.812;9.206;2022-07-12T08:50:17;26.80;62.40
63039;DHT22;49125;48.812;9.206;2022-07-12T08:52:51;27.10;59.50
63039;DHT22;49125;48.812;9.206;2022-07-12T08:55:29;27.10;58.70
63039;DHT22;49125;48.812;9.206;2022-07-12T08:57:59;27.10;57.50
63039;DHT22;49125;48.812;9.206;2022-07-12T09:00:26;27.20;60.30
63039;DHT22;49125;48.812;9.206;2022-07-12T09:02:57;27.50;58.70
63039;DHT22;49125;48.812;9.206;2022-07-12T09:05:24;27.70;61.00
63039;DHT22;49125;48.812;9.206;2022-07-12T09:07:50;28.10;60.30
63039;DHT22;49125;48.812;9.206;2022-07-12T09:10:17;28.30;59.50
63039;DHT22;49125;48.812;9.206;2022-07-12T09:12:44;28.70;58.00
63039;DHT22;49125;48.812;9.206;2022-07-12T09:17:39;28.40;52.80
63039;DHT22;49125;48.812;9.206;2022-07-12T09:20:08;28.50;55.70
63039;DHT22;49125;48.812;9.206;2022-07-12T09:22:35;28.70;53.70
63039;DHT22;49125;48.812;9.206;2022-07-12T09:25:16;28.60;53.60
63039;DHT22;49125;48.812;9.206;2022-07-12T09:27:54;28.90;54.60
63039;DHT22;49125;48.812;9.206;2022-07-12T09:30:21;28.90;54.40
63039;DHT22;49125;48.812;9.206;2022-07-12T09:35:35;29.10;51.00
63039;DHT22;49125;48.812;9.206;2022-07-12T09:38:19;29.10;52.50
63039;DHT22;49125;48.812;9.206;2022-07-12T09:40:45;29.10;50.90
63039;DHT22;49125;48.812;9.206;2022-07-12T09:43:13;29.30;51.30
63039;DHT22;49125;48.812;9.206;2022-07-12T09:45:40;29.50;52.80
63039;DHT22;49125;48.812;9.206;2022-07-12T09:48:07;29.60;51.80
63039;DHT22;49125;48.812;9.206;2022-07-12T09:50:35;29.30;52.10
63039;DHT22;49125;48.812;9.206;2022-07-12T09:53:02;29.70;54.10
63039;DHT22;49125;48.812;9.206;2022-07-12T09:55:33;30.10;50.00
63039;DHT22;49125;48.812;9.206;2022-07-12T09:58:01;30.20;48.00
63039;DHT22;49125;48.812;9.206;2022-07-12T10:00:28;30.00;50.50
63039;DHT22;49125;48.812;9.206;2022-07-12T10:02:58;29.90;47.10
63039;DHT22;49125;48.812;9.206;2022-07-12T10:05:25;29.30;48.50
63039;DHT22;49125;48.812;9.206;2022-07-12T10:07:51;29.30;49.40
63039;DHT22;49125;48.812;9.206;2022-07-12T10:10:17;29.40;49.90
63039;DHT22;49125;48.812;9.206;2022-07-12T10:12:43;29.60;49.00
63039;DHT22;49125;48.812;9.206;2022-07-12T10:15:14;29.60;51.60
63039;DHT22;49125;48.812;9.206;2022-07-12T10:17:41;29.50;48.70
63039;DHT22;49125;48.812;9.206;2022-07-12T10:22:41;28.60;49.70
63039;DHT22;49125;48.812;9.206;2022-07-12T10:25:27;28.80;49.80
63039;DHT22;49125;48.812;9.206;2022-07-12T10:27:53;29.40;50.90
63039;DHT22;49125;48.812;9.206;2022-07-12T10:30:23;29.40;49.50
63039;DHT22;49125;48.812;9.206;2022-07-12T10:33:14;29.10;51.20
63039;DHT22;49125;48.812;9.206;2022-07-12T10:35:38;29.50;49.30
63039;DHT22;49125;48.812;9.206;2022-07-12T10:40:39;30.10;47.80
63039;DHT22;49125;48.812;9.206;2022-07-12T10:45:31;30.50;46.50
63039;DHT22;49125;48.812;9.206;2022-07-12T10:47:58;30.50;46.90
63039;DHT22;49125;48.812;9.206;2022-07-12T10:56:11;30.80;46.00
63039;DHT22;49125;48.812;9.206;2022-07-12T10:58:54;30.80;45.70
63039;DHT22;49125;48.812;9.206;2022-07-12T11:03:57;31.30;45.40
63039;DHT22;49125;48.812;9.206;2022-07-12T11:06:28;31.60;47.60
63039;DHT22;49125;48.812;9.206;2022-07-12T11:11:20;31.90;47.10
63039;DHT22;49125;48.812;9.206;2022-07-12T11:13:46;32.10;44.50
63039;DHT22;49125;48.812;9.206;2022-07-12T11:16:12;32.30;47.10
63039;DHT22;49125;48.812;9.206;2022-07-12T11:18:38;32.10;42.30
63039;DHT22;49125;48.812;9.206;2022-07-12T11:21:04;31.90;44.10
63039;DHT22;49125;48.812;9.206;2022-07-12T11:23:30;32.40;43.70
63039;DHT22;49125;48.812;9.206;2022-07-12T11:25:57;32.50;42.80
63039;DHT22;49125;48.812;9.206;2022-07-12T11:28:24;33.00;44.40
63039;DHT22;49125;48.812;9.206;2022-07-12T11:30:53;33.50;45.20
63039;DHT22;49125;48.812;9.206;2022-07-12T11:33:24;34.00;42.50
63039;DHT22;49125;48.812;9.206;2022-07-12T11:35:51;33.50;41.00
63039;DHT22;49125;48.812;9.206;2022-07-12T11:38:24;33.00;40.70
63039;DHT22;49125;48.812;9.206;2022-07-12T11:40:58;33.20;40.50
63039;DHT22;49125;48.812;9.206;2022-07-12T11:43:24;33.00;40.40
63039;DHT22;49125;48.812;9.206;2022-07-12T11:45:51;33.40;42.60
63039;DHT22;49125;48.812;9.206;2022-07-12T11:48:17;34.00;41.10
63039;DHT22;49125;48.812;9.206;2022-07-12T11:50:43;34.10;40.60
63039;DHT22;49125;48.812;9.206;2022-07-12T11:53:17;35.00;41.80
63039;DHT22;49125;48.812;9.206;2022-07-12T11:55:50;34.60;39.70
63039;DHT22;49125;48.812;9.206;2022-07-12T11:58:17;34.90;39.90
63039;DHT22;49125;48.812;9.206;2022-07-12T12:00:44;35.50;39.10
63039;DHT22;49125;48.812;9.206;2022-07-12T12:03:11;35.30;38.50
63039;DHT22;49125;48.812;9.206;2022-07-12T12:05:37;35.30;38.50
63039;DHT22;49125;48.812;9.206;2022-07-12T12:08:07;35.10;39.90
63039;DHT22;49125;48.812;9.206;2022-07-12T12:10:33;35.30;39.10
63039;DHT22;49125;48.812;9.206;2022-07-12T12:13:00;35.80;36.70
63039;DHT22;49125;48.812;9.206;2022-07-12T12:15:31;36.20;37.00
63039;DHT22;49125;48.812;9.206;2022-07-12T12:18:06;35.90;35.30
63039;DHT22;49125;48.812;9.206;2022-07-12T12:20:37;36.20;36.20
63039;DHT22;49125;48.812;9.206;2022-07-12T12:23:10;36.40;36.50
63039;DHT22;49125;48.812;9.206;2022-07-12T12:25:39;36.20;35.80
63039;DHT22;49125;48.812;9.206;2022-07-12T12:28:05;36.70;38.00
63039;DHT22;49125;48.812;9.206;2022-07-12T12:30:35;37.20;36.30
63039;DHT22;49125;48.812;9.206;2022-07-12T12:33:04;37.40;35.60
63039;DHT22;49125;48.812;9.206;2022-07-12T12:35:35;37.90;35.30
63039;DHT22;49125;48.812;9.206;2022-07-12T12:38:03;38.20;34.30
63039;DHT22;49125;48.812;9.206;2022-07-12T12:40:35;37.90;33.90
63039;DHT22;49125;48.812;9.206;2022-07-12T12:43:09;37.70;32.90
63039;DHT22;49125;48.812;9.206;2022-07-12T12:45:35;38.00;35.50
63039;DHT22;49125;48.812;9.206;2022-07-12T12:48:02;38.40;34.40
63039;DHT22;49125;48.812;9.206;2022-07-12T12:50:41;38.80;34.40
63039;DHT22;49125;48.812;9.206;2022-07-12T12:53:12;39.00;33.00
63039;DHT22;49125;48.812;9.206;2022-07-12T12:55:38;39.10;33.40
63039;DHT22;49125;48.812;9.206;2022-07-12T12:58:04;39.50;33.10
63039;DHT22;49125;48.812;9.206;2022-07-12T13:00:31;39.70;32.10
63039;DHT22;49125;48.812;9.206;2022-07-12T13:02:57;39.50;32.10
63039;DHT22;49125;48.812;9.206;2022-07-12T13:05:29;39.20;33.10
63039;DHT22;49125;48.812;9.206;2022-07-12T13:07:54;38.10;31.30
63039;DHT22;49125;48.812;9.206;2022-07-12T13:10:21;38.50;32.80
63039;DHT22;49125;48.812;9.206;2022-07-12T13:12:47;39.10;32.50
63039;DHT22;49125;48.812;9.206;2022-07-12T13:15:13;39.10;32.00
63039;DHT22;49125;48.812;9.206;2022-07-12T13:17:39;39.30;31.80
63039;DHT22;49125;48.812;9.206;2022-07-12T13:20:05;39.30;31.60
63039;DHT22;49125;48.812;9.206;2022-07-12T13:22:34;39.40;30.90
63039;DHT22;49125;48.812;9.206;2022-07-12T13:25:00;38.70;30.50
63039;DHT22;49125;48.812;9.206;2022-07-12T13:27:26;38.80;31.90
63039;DHT22;49125;48.812;9.206;2022-07-12T13:29:55;39.50;33.50
63039;DHT22;49125;48.812;9.206;2022-07-12T13:32:20;40.20;31.40
63039;DHT22;49125;48.812;9.206;2022-07-12T13:34:49;40.50;31.10
63039;DHT22;49125;48.812;9.206;2022-07-12T13:37:15;40.10;29.70
63039;DHT22;49125;48.812;9.206;2022-07-12T13:39:41;39.40;30.10
63039;DHT22;49125;48.812;9.206;2022-07-12T13:42:25;38.50;30.00
63039;DHT22;49125;48.812;9.206;2022-07-12T13:44:51;38.80;32.20
63039;DHT22;49125;48.812;9.206;2022-07-12T13:47:19;38.30;29.90
63039;DHT22;49125;48.812;9.206;2022-07-12T13:49:45;38.40;30.80
63039;DHT22;49125;48.812;9.206;2022-07-12T13:52:10;38.30;30.50
63039;DHT22;49125;48.812;9.206;2022-07-12T13:54:37;38.90;31.40
63039;DHT22;49125;48.812;9.206;2022-07-12T13:57:03;39.70;31.30
63039;DHT22;49125;48.812;9.206;2022-07-12T13:59:29;40.40;29.10
63039;DHT22;49125;48.812;9.206;2022-07-12T14:01:54;40.20;30.60
63039;DHT22;49125;48.812;9.206;2022-07-12T14:04:20;40.20;29.50
63039;DHT22;49125;48.812;9.206;2022-07-12T14:06:45;40.30;31.10
63039;DHT22;49125;48.812;9.206;2022-07-12T14:09:12;40.30;30.70
63039;DHT22;49125;48.812;9.206;2022-07-12T14:11:38;40.40;28.90
63039;DHT22;49125;48.812;9.206;2022-07-12T14:14:06;40.10;29.50
63039;DHT22;49125;48.812;9.206;2022-07-12T14:16:33;40.00;29.60
63039;DHT22;49125;48.812;9.206;2022-07-12T14:18:59;39.80;28.90
63039;DHT22;49125;48.812;9.206;2022-07-12T14:21:26;39.30;29.30
63039;DHT22;49125;48.812;9.206;2022-07-12T14:23:53;39.50;29.60
63039;DHT22;49125;48.812;9.206;2022-07-12T14:26:19;39.70;30.50
63039;DHT22;49125;48.812;9.206;2022-07-12T14:28:44;39.50;29.80
63039;DHT22;49125;48.812;9.206;2022-07-12T14:31:10;40.20;30.10
63039;DHT22;49125;48.812;9.206;2022-07-12T14:33:35;40.20;29.20
63039;DHT22;49125;48.812;9.206;2022-07-12T14:36:01;40.10;29.90
63039;DHT22;49125;48.812;9.206;2022-07-12T14:38:26;39.80;29.30
63039;DHT22;49125;48.812;9.206;2022-07-12T14:40:52;39.80;30.60
63039;DHT22;49125;48.812;9.206;2022-07-12T14:43:18;40.20;30.00
63039;DHT22;49125;48.812;9.206;2022-07-12T14:45:45;40.40;29.20
63039;DHT22;49125;48.812;9.206;2022-07-12T14:48:11;40.60;30.10
63039;DHT22;49125;48.812;9.206;2022-07-12T14:50:38;40.90;29.40
63039;DHT22;49125;48.812;9.206;2022-07-12T14:53:04;40.80;29.20
63039;DHT22;49125;48.812;9.206;2022-07-12T14:55:29;40.80;29.00
63039;DHT22;49125;48.812;9.206;2022-07-12T14:57:55;40.80;29.80
63039;DHT22;49125;48.812;9.206;2022-07-12T15:00:22;40.20;28.30
63039;DHT22;49125;48.812;9.206;2022-07-12T15:02:48;39.80;29.20
63039;DHT22;49125;48.812;9.206;2022-07-12T15:05:13;39.20;28.90
63039;DHT22;49125;48.812;9.206;2022-07-12T15:07:39;39.40;28.00
63039;DHT22;49125;48.812;9.206;2022-07-12T15:10:05;38.90;28.60
63039;DHT22;49125;48.812;9.206;2022-07-12T15:12:31;39.10;29.10
63039;DHT22;49125;48.812;9.206;2022-07-12T15:14:57;39.60;29.00
63039;DHT22;49125;48.812;9.206;2022-07-12T15:17:23;39.90;28.90
63039;DHT22;49125;48.812;9.206;2022-07-12T15:19:49;40.20;29.10
63039;DHT22;49125;48.812;9.206;2022-07-12T15:22:17;40.60;28.80
63039;DHT22;49125;48.812;9.206;2022-07-12T15:24:43;40.70;29.10
63039;DHT22;49125;48.812;9.206;2022-07-12T15:27:09;40.60;27.90
63039;DHT22;49125;48.812;9.206;2022-07-12T15:29:37;40.50;28.30
63039;DHT22;49125;48.812;9.206;2022-07-12T15:32:04;40.60;28.00
63039;DHT22;49125;48.812;9.206;2022-07-12T15:34:30;40.20;28.30
63039;DHT22;49125;48.812;9.206;2022-07-12T15:36:55;40.00;28.30
63039;DHT22;49125;48.812;9.206;2022-07-12T15:39:21;39.90;28.60
63039;DHT22;49125;48.812;9.206;2022-07-12T15:41:47;39.90;28.60
63039;DHT22;49125;48.812;9.206;2022-07-12T15:44:13;40.30;28.80
63039;DHT22;49125;48.812;9.206;2022-07-12T15:46:38;40.20;28.20
63039;DHT22;49125;48.812;9.206;2022-07-12T15:49:04;39.70;28.50
63039;DHT22;49125;48.812;9.206;2022-07-12T15:51:30;39.50;29.10
63039;DHT22;49125;48.812;9.206;2022-07-12T15:54:14;39.40;28.20
63039;DHT22;49125;48.812;9.206;2022-07-12T15:56:40;39.00;28.40